createdAt,value
2022-08-21T00:01:43.109Z,100.00
2022-08-21T00:04:10.865Z,100.00
2022-08-21T00:06:41.663Z,100.00
2022-08-21T00:09:09.615Z,100.00
2022-08-21T00:11:38.451Z,100.00
2022-08-21T00:14:07.737Z,100.00
2022-08-21T00:16:34.355Z,100.00
2022-08-21T00:19:00.982Z,100.00
2022-08-21T00:21:28.058Z,100.00
2022-08-21T00:23:54.670Z,100.00
2022-08-21T00:26:21.335Z,100.00
2022-08-21T00:28:49.785Z,100.00
2022-08-21T00:31:17.592Z,100.00
2022-08-21T00:33:45.791Z,100.00
2022-08-21T00:36:13.180Z,100.00
2022-08-21T00:38:40.641Z,100.00
2022-08-21T00:41:37.386Z,100.00
2022-08-21T00:43:57.474Z,100.00
2022-08-21T00:46:28.142Z,100.00
2022-08-21T00:48:57.259Z,100.00
2022-08-21T00:51:49.514Z,100.00
2022-08-21T00:54:19.581Z,100.00
2022-08-21T00:56:51.146Z,100.00
2022-08-21T00:59:21.260Z,100.00
2022-08-21T01:01:49.566Z,100.00
2022-08-21T01:04:17.386Z,100.00
2022-08-21T01:06:44.605Z,100.00
2022-08-21T01:09:11.777Z,100.00
2022-08-21T01:11:38.568Z,100.00
2022-08-21T01:14:05.233Z,100.00
2022-08-21T01:16:33.581Z,100.00
2022-08-21T01:19:00.357Z,100.00
2022-08-21T01:21:28.955Z,100.00
2022-08-21T01:23:57.247Z,100.00
2022-08-21T01:26:33.693Z,100.00
2022-08-21T01:29:07.987Z,100.00
2022-08-21T01:31:35.037Z,100.00
2022-08-21T01:34:01.776Z,100.00
2022-08-21T01:36:28.943Z,100.00
2022-08-21T01:38:56.947Z,100.00
2022-08-21T01:41:24.247Z,100.00
2022-08-21T01:43:51.000Z,100.00
2022-08-21T01:46:17.961Z,100.00
2022-08-21T01:48:44.809Z,100.00
2022-08-21T01:51:12.631Z,100.00
2022-08-21T01:53:39.556Z,100.00
2022-08-21T01:56:11.903Z,100.00
2022-08-21T01:58:41.952Z,100.00
2022-08-21T02:01:10.305Z,100.00
2022-08-21T02:03:37.985Z,100.00
2022-08-21T02:06:06.459Z,100.00
2022-08-21T02:08:33.954Z,100.00
2022-08-21T02:11:01.122Z,100.00
2022-08-21T02:13:27.836Z,100.00
2022-08-21T02:15:54.482Z,100.00
2022-08-21T02:18:21.206Z,100.00
2022-08-21T02:20:49.553Z,100.00
2022-08-21T02:23:26.765Z,100.00
2022-08-21T02:25:55.032Z,100.00
2022-08-21T02:28:22.383Z,100.00
2022-08-21T02:30:50.023Z,100.00
2022-08-21T02:33:17.330Z,100.00
2022-08-21T02:35:45.344Z,100.00
2022-08-21T02:38:15.277Z,100.00
2022-08-21T02:40:48.433Z,100.00
2022-08-21T02:43:19.744Z,100.00
2022-08-21T02:45:47.445Z,100.00
2022-08-21T02:48:17.562Z,100.00
2022-08-21T02:50:48.502Z,100.00
2022-08-21T02:53:17.412Z,100.00
2022-08-21T02:55:49.429Z,100.00
2022-08-21T02:58:20.072Z,100.00
2022-08-21T03:00:47.452Z,100.00
2022-08-21T03:03:15.452Z,100.00
2022-08-21T03:05:44.061Z,100.00
2022-08-21T03:08:12.912Z,100.00
2022-08-21T03:10:42.035Z,100.00
2022-08-21T03:13:08.955Z,100.00
2022-08-21T03:15:35.666Z,100.00
2022-08-21T03:18:05.567Z,100.00
2022-08-21T03:20:33.404Z,100.00
2022-08-21T03:23:01.458Z,100.00
2022-08-21T03:25:39.742Z,100.00
2022-08-21T03:28:13.199Z,100.00
2022-08-21T03:30:45.719Z,100.00
2022-08-21T03:33:15.223Z,100.00
2022-08-21T03:35:48.057Z,100.00
2022-08-21T03:38:14.832Z,100.00
2022-08-21T03:40:42.990Z,100.00
2022-08-21T03:43:10.297Z,100.00
2022-08-21T03:45:37.208Z,100.00
2022-08-21T03:48:05.729Z,100.00
2022-08-21T03:50:35.597Z,100.00
2022-08-21T03:53:08.465Z,100.00
2022-08-21T03:55:44.142Z,100.00
2022-08-21T03:58:16.674Z,100.00
2022-08-21T04:00:46.796Z,100.00
2022-08-21T04:03:13.631Z,100.00
2022-08-21T04:05:40.458Z,100.00
2022-08-21T04:08:07.611Z,100.00
2022-08-21T04:10:37.697Z,100.00
2022-08-21T04:13:05.714Z,100.00
2022-08-21T04:15:32.483Z,100.00
2022-08-21T04:17:59.836Z,100.00
2022-08-21T04:20:27.083Z,100.00
2022-08-21T04:22:54.801Z,100.00
2022-08-21T04:25:23.580Z,100.00
2022-08-21T04:27:50.644Z,100.00
2022-08-21T04:30:17.832Z,100.00
2022-08-21T04:32:46.295Z,100.00
2022-08-21T04:35:14.318Z,100.00
2022-08-21T04:37:42.231Z,100.00
2022-08-21T04:40:11.802Z,100.00
2022-08-21T04:42:45.636Z,100.00
2022-08-21T04:45:25.280Z,100.00
2022-08-21T04:47:53.940Z,100.00
2022-08-21T04:50:28.164Z,100.00
2022-08-21T04:53:06.294Z,100.00
2022-08-21T04:55:33.271Z,100.00
2022-08-21T04:58:00.497Z,100.00
2022-08-21T05:00:27.702Z,100.00
2022-08-21T05:02:57.469Z,100.00
2022-08-21T05:05:25.359Z,100.00
2022-08-21T05:07:54.017Z,100.00
2022-08-21T05:10:21.357Z,100.00
2022-08-21T05:12:48.103Z,100.00
2022-08-21T05:15:15.080Z,100.00
2022-08-21T05:17:42.660Z,100.00
2022-08-21T05:20:14.724Z,100.00
2022-08-21T05:22:42.202Z,100.00
2022-08-21T05:25:10.881Z,100.00
2022-08-21T05:27:39.571Z,100.00
2022-08-21T05:30:08.536Z,100.00
2022-08-21T05:32:36.551Z,100.00
2022-08-21T05:35:06.004Z,100.00
2022-08-21T05:37:32.989Z,100.00
2022-08-21T05:40:05.377Z,100.00
2022-08-21T05:42:54.395Z,100.00
2022-08-21T05:45:31.599Z,100.00
2022-08-21T05:48:17.353Z,100.00
2022-08-21T05:50:45.789Z,100.00
2022-08-21T05:53:13.772Z,100.00
2022-08-21T05:55:45.685Z,100.00
2022-08-21T05:58:19.138Z,100.00
2022-08-21T06:00:48.146Z,100.00
2022-08-21T06:03:21.835Z,100.00
2022-08-21T06:05:48.855Z,100.00
2022-08-21T06:08:17.745Z,100.00
2022-08-21T06:10:46.078Z,100.00
2022-08-21T06:13:13.658Z,100.00
2022-08-21T06:15:40.406Z,100.00
2022-08-21T06:18:07.419Z,100.00
2022-08-21T06:20:34.304Z,100.00
2022-08-21T06:23:01.703Z,100.00
2022-08-21T06:25:28.755Z,100.00
2022-08-21T06:28:05.527Z,100.00
2022-08-21T06:30:33.067Z,100.00
2022-08-21T06:33:00.134Z,100.00
2022-08-21T06:35:27.375Z,100.00
2022-08-21T06:37:53.962Z,100.00
2022-08-21T06:40:20.643Z,100.00
2022-08-21T06:42:48.550Z,100.00
2022-08-21T06:45:16.635Z,100.00
2022-08-21T06:47:43.243Z,100.00
2022-08-21T06:50:10.760Z,100.00
2022-08-21T06:52:38.256Z,100.00
2022-08-21T06:55:10.481Z,100.00
2022-08-21T06:57:37.338Z,100.00
2022-08-21T07:00:07.354Z,100.00
2022-08-21T07:02:34.717Z,100.00
2022-08-21T07:05:02.079Z,100.00
2022-08-21T07:07:45.389Z,100.00
2022-08-21T07:10:21.969Z,100.00
2022-08-21T07:12:51.054Z,100.00
2022-08-21T07:15:20.298Z,100.00
2022-08-21T07:17:46.906Z,100.00
2022-08-21T07:20:13.940Z,100.00
2022-08-21T07:22:41.938Z,100.00
2022-08-21T07:25:09.074Z,100.00
2022-08-21T07:27:35.800Z,100.00
2022-08-21T07:30:02.629Z,100.00
2022-08-21T07:32:29.549Z,100.00
2022-08-21T07:34:56.873Z,100.00
2022-08-21T07:37:23.598Z,100.00
2022-08-21T07:39:51.957Z,100.00
2022-08-21T07:42:18.722Z,100.00
2022-08-21T07:44:45.553Z,100.00
2022-08-21T07:47:12.358Z,100.00
2022-08-21T07:49:39.293Z,100.00
2022-08-21T07:52:06.127Z,100.00
2022-08-21T07:54:33.823Z,100.00
2022-08-21T07:57:01.930Z,100.00
2022-08-21T07:59:29.408Z,100.00
2022-08-21T08:01:57.475Z,100.00
2022-08-21T08:04:26.460Z,100.00
2022-08-21T08:06:53.945Z,100.00
2022-08-21T08:09:20.776Z,100.00
2022-08-21T08:11:47.596Z,100.00
2022-08-21T08:14:14.273Z,100.00
2022-08-21T08:16:40.972Z,100.00
2022-08-21T08:19:07.701Z,100.00
2022-08-21T08:21:35.248Z,100.00
2022-08-21T08:24:18.498Z,100.00
2022-08-21T08:26:46.997Z,100.00
2022-08-21T08:29:22.317Z,100.00
2022-08-21T08:31:49.096Z,100.00
2022-08-21T08:34:25.361Z,100.00
2022-08-21T08:36:52.476Z,100.00
2022-08-21T08:39:27.053Z,100.00
2022-08-21T08:42:33.573Z,100.00
2022-08-21T08:45:14.520Z,100.00
2022-08-21T08:47:46.328Z,100.00
2022-08-21T08:50:29.744Z,100.00
2022-08-21T08:53:05.818Z,100.00
2022-08-21T08:55:40.235Z,100.00
2022-08-21T08:58:09.754Z,100.00
2022-08-21T09:00:38.812Z,100.00
2022-08-21T09:03:05.522Z,100.00
2022-08-21T09:06:08.258Z,100.00
2022-08-21T09:08:59.527Z,100.00
2022-08-21T09:11:49.528Z,100.00
2022-08-21T09:14:16.271Z,100.00
2022-08-21T09:17:14.755Z,100.00
2022-08-21T09:20:12.738Z,100.00
2022-08-21T09:23:03.739Z,100.00
2022-08-21T09:25:46.651Z,100.00
2022-08-21T09:28:15.731Z,100.00
2022-08-21T09:30:43.030Z,100.00
2022-08-21T09:33:13.655Z,100.00
2022-08-21T09:36:00.222Z,100.00
2022-08-21T09:38:38.769Z,100.00
2022-08-21T09:41:11.160Z,100.00
2022-08-21T09:43:39.318Z,100.00
2022-08-21T09:46:12.504Z,100.00
2022-08-21T09:48:48.173Z,100.00
2022-08-21T09:51:21.493Z,100.00
2022-08-21T09:53:57.555Z,100.00
2022-08-21T09:56:54.065Z,100.00
2022-08-21T09:59:26.610Z,100.00
2022-08-21T10:01:55.320Z,100.00
2022-08-21T10:04:34.025Z,100.00
2022-08-21T10:07:13.490Z,100.00
2022-08-21T10:09:41.706Z,99.37
2022-08-21T10:12:21.393Z,100.00
2022-08-21T10:14:57.484Z,100.00
2022-08-21T10:17:36.444Z,100.00
2022-08-21T10:20:11.380Z,100.00
2022-08-21T10:23:03.438Z,100.00
2022-08-21T10:26:13.633Z,100.00
2022-08-21T10:28:49.146Z,100.00
2022-08-21T10:31:54.892Z,100.00
2022-08-21T10:34:33.645Z,100.00
2022-08-21T10:37:22.114Z,100.00
2022-08-21T10:40:10.046Z,100.00
2022-08-21T10:42:56.473Z,99.13
2022-08-21T10:45:45.055Z,100.00
2022-08-21T10:48:22.876Z,100.00
2022-08-21T10:50:56.598Z,97.43
2022-08-21T10:53:50.755Z,96.12
2022-08-21T10:56:29.523Z,100.00
2022-08-21T10:59:08.056Z,91.02
2022-08-21T11:01:47.511Z,91.50
2022-08-21T11:04:21.843Z,91.67
2022-08-21T11:06:58.002Z,91.17
2022-08-21T11:09:27.414Z,92.92
2022-08-21T11:12:10.916Z,93.05
2022-08-21T11:15:02.879Z,89.33
2022-08-21T11:17:45.050Z,90.92
2022-08-21T11:20:19.001Z,90.60
2022-08-21T11:23:03.006Z,94.42
2022-08-21T11:25:43.915Z,87.81
2022-08-21T11:28:21.525Z,86.05
2022-08-21T11:31:16.806Z,82.85
2022-08-21T11:34:11.067Z,82.87
2022-08-21T11:36:45.241Z,85.63
2022-08-21T11:39:48.650Z,87.95
2022-08-21T11:42:32.102Z,87.23
2022-08-21T11:45:32.467Z,87.41
2022-08-21T11:48:26.396Z,85.26
2022-08-21T11:50:54.955Z,86.47
2022-08-21T11:53:40.692Z,87.95
2022-08-21T11:56:22.996Z,85.52
2022-08-21T11:58:55.027Z,89.01
2022-08-21T12:01:36.624Z,90.67
2022-08-21T12:04:09.272Z,86.55
2022-08-21T12:06:42.574Z,87.38
2022-08-21T12:09:24.488Z,86.98
2022-08-21T12:12:03.878Z,87.37
2022-08-21T12:14:43.520Z,83.74
2022-08-21T12:17:22.379Z,84.34
2022-08-21T12:20:00.811Z,79.87
2022-08-21T12:22:39.845Z,83.48
2022-08-21T12:25:12.176Z,79.38
2022-08-21T12:27:52.680Z,78.44
2022-08-21T12:30:28.300Z,76.28
2022-08-21T12:32:59.863Z,75.07
2022-08-21T12:35:33.753Z,76.09
2022-08-21T12:38:09.493Z,76.09
2022-08-21T12:40:57.556Z,77.11
2022-08-21T12:43:33.942Z,73.42
2022-08-21T12:46:01.752Z,74.18
2022-08-21T12:48:34.376Z,76.79
2022-08-21T12:51:25.407Z,76.73
2022-08-21T12:53:57.882Z,75.69
2022-08-21T12:56:28.104Z,74.45
2022-08-21T12:59:03.969Z,73.22
2022-08-21T13:01:44.866Z,73.54
2022-08-21T13:04:14.044Z,69.54
2022-08-21T13:06:44.582Z,63.11
2022-08-21T13:09:15.920Z,61.60
2022-08-21T13:11:45.948Z,63.54
2022-08-21T13:14:26.979Z,63.45
2022-08-21T13:16:56.842Z,62.21
2022-08-21T13:19:25.025Z,62.13
2022-08-21T13:21:53.485Z,63.14
2022-08-21T13:24:42.471Z,60.35
2022-08-21T13:27:28.864Z,57.91
2022-08-21T13:30:10.871Z,59.06
2022-08-21T13:32:42.943Z,58.37
2022-08-21T13:35:13.250Z,60.24
2022-08-21T13:37:43.039Z,62.23
2022-08-21T13:40:19.788Z,60.42
2022-08-21T13:42:49.180Z,61.61
2022-08-21T13:45:28.373Z,61.37
2022-08-21T13:47:56.014Z,63.07
2022-08-21T13:50:25.695Z,64.37
2022-08-21T13:53:04.395Z,64.33
2022-08-21T13:55:44.035Z,64.23
2022-08-21T13:58:12.108Z,63.34
2022-08-21T14:00:51.505Z,64.61
2022-08-21T14:03:43.007Z,64.79
2022-08-21T14:06:20.132Z,63.14
2022-08-21T14:09:16.992Z,60.67
2022-08-21T14:11:43.814Z,58.93
2022-08-21T14:14:24.200Z,60.57
2022-08-21T14:17:24.449Z,62.28
2022-08-21T14:19:49.548Z,63.55
2022-08-21T14:22:35.787Z,63.76
2022-08-21T14:25:13.570Z,65.55
2022-08-21T14:27:45.829Z,64.46
2022-08-21T14:30:19.313Z,64.33
2022-08-21T14:32:48.506Z,62.83
2022-08-21T14:35:18.370Z,64.68
2022-08-21T14:37:53.854Z,65.22
2022-08-21T14:40:23.416Z,65.39
2022-08-21T14:42:52.909Z,66.43
2022-08-21T14:45:27.712Z,65.93
2022-08-21T14:47:55.643Z,65.75
2022-08-21T14:50:22.673Z,67.15
2022-08-21T14:52:50.181Z,67.81
2022-08-21T14:55:18.626Z,69.08
2022-08-21T14:57:48.962Z,69.53
2022-08-21T15:00:20.553Z,67.62
2022-08-21T15:02:47.524Z,66.51
2022-08-21T15:05:16.689Z,64.78
2022-08-21T15:07:53.198Z,64.24
2022-08-21T15:10:20.122Z,66.26
2022-08-21T15:12:46.917Z,65.62
2022-08-21T15:15:13.677Z,65.49
2022-08-21T15:17:48.147Z,68.43
2022-08-21T15:20:15.419Z,67.35
2022-08-21T15:22:42.083Z,66.82
2022-08-21T15:25:14.845Z,66.87
2022-08-21T15:27:41.482Z,65.86
2022-08-21T15:30:08.891Z,66.70
2022-08-21T15:32:35.535Z,64.93
2022-08-21T15:35:03.182Z,64.75
2022-08-21T15:37:30.025Z,65.39
2022-08-21T15:39:57.161Z,63.94
2022-08-21T15:42:27.762Z,63.33
2022-08-21T15:44:56.774Z,62.70
2022-08-21T15:47:28.368Z,63.86
2022-08-21T15:49:55.127Z,64.91
2022-08-21T15:52:22.399Z,65.01
2022-08-21T15:54:49.857Z,64.07
2022-08-21T15:57:24.758Z,64.38
2022-08-21T15:59:55.596Z,60.84
2022-08-21T16:02:26.393Z,62.50
2022-08-21T16:04:53.673Z,62.81
2022-08-21T16:07:20.999Z,62.63
2022-08-21T16:09:47.891Z,63.43
2022-08-21T16:12:21.829Z,62.93
2022-08-21T16:14:50.560Z,62.98
2022-08-21T16:17:17.433Z,62.83
2022-08-21T16:19:44.396Z,61.86
2022-08-21T16:22:11.025Z,61.68
2022-08-21T16:24:37.903Z,61.33
2022-08-21T16:27:08.131Z,58.05
2022-08-21T16:29:37.612Z,56.59
2022-08-21T16:32:05.734Z,56.87
2022-08-21T16:34:32.536Z,57.87
2022-08-21T16:36:59.194Z,58.12
2022-08-21T16:39:26.086Z,57.18
2022-08-21T16:41:52.766Z,57.58
2022-08-21T16:44:21.433Z,57.57
2022-08-21T16:46:48.272Z,58.40
2022-08-21T16:49:15.133Z,60.11
2022-08-21T16:51:41.796Z,57.37
2022-08-21T16:54:09.173Z,58.33
2022-08-21T16:56:39.792Z,60.05
2022-08-21T16:59:07.664Z,60.13
2022-08-21T17:01:36.951Z,61.39
2022-08-21T17:04:04.158Z,61.24
2022-08-21T17:06:31.169Z,61.82
2022-08-21T17:08:59.243Z,61.00
2022-08-21T17:11:37.826Z,60.25
2022-08-21T17:14:09.070Z,59.81
2022-08-21T17:16:36.869Z,60.43
2022-08-21T17:19:04.016Z,60.20
2022-08-21T17:21:30.727Z,60.88
2022-08-21T17:23:57.405Z,60.83
2022-08-21T17:26:25.139Z,59.92
2022-08-21T17:28:54.837Z,59.24
2022-08-21T17:31:22.719Z,59.53
2022-08-21T17:33:53.686Z,59.33
2022-08-21T17:36:26.118Z,58.06
2022-08-21T17:38:53.707Z,58.95
2022-08-21T17:41:21.199Z,59.02
2022-08-21T17:43:49.670Z,59.42
2022-08-21T17:46:20.792Z,59.29
2022-08-21T17:48:47.685Z,59.66
2022-08-21T17:51:15.443Z,59.09
2022-08-21T17:53:42.529Z,59.47
2022-08-21T17:56:09.616Z,60.91
2022-08-21T17:58:37.885Z,60.96
2022-08-21T18:01:05.826Z,61.45
2022-08-21T18:03:38.228Z,65.35
2022-08-21T18:06:06.287Z,67.95
2022-08-21T18:08:33.507Z,71.99
2022-08-21T18:11:00.945Z,70.17
2022-08-21T18:13:33.288Z,70.22
2022-08-21T18:16:01.112Z,68.01
2022-08-21T18:18:32.719Z,66.70
2022-08-21T18:20:59.473Z,70.75
2022-08-21T18:23:44.351Z,75.66
2022-08-21T18:26:14.453Z,78.90
2022-08-21T18:28:41.620Z,79.84
2022-08-21T18:31:10.733Z,79.26
2022-08-21T18:33:39.400Z,78.76
2022-08-21T18:36:10.272Z,79.60
2022-08-21T18:38:37.919Z,81.06
2022-08-21T18:41:10.068Z,82.38
2022-08-21T18:43:38.383Z,81.62
2022-08-21T18:46:05.289Z,77.86
2022-08-21T18:48:32.505Z,73.72
2022-08-21T18:50:59.709Z,73.30
2022-08-21T18:53:27.970Z,73.70
2022-08-21T18:55:57.161Z,75.44
2022-08-21T18:58:25.571Z,79.18
2022-08-21T19:00:54.087Z,81.95
2022-08-21T19:03:23.955Z,82.92
2022-08-21T19:05:52.970Z,83.50
2022-08-21T19:08:22.456Z,84.22
2022-08-21T19:10:51.115Z,85.13
2022-08-21T19:13:20.570Z,86.34
2022-08-21T19:15:52.981Z,86.62
2022-08-21T19:18:28.381Z,87.10
2022-08-21T19:20:56.063Z,87.93
2022-08-21T19:23:29.333Z,87.66
2022-08-21T19:26:00.682Z,88.21
2022-08-21T19:28:35.393Z,88.21
2022-08-21T19:31:34.015Z,89.21
2022-08-21T19:34:21.909Z,89.38
2022-08-21T19:36:48.728Z,90.49
2022-08-21T19:39:17.640Z,92.52
2022-08-21T19:44:36.961Z,94.82
2022-08-21T19:47:13.240Z,95.15
2022-08-21T19:49:50.726Z,98.39
2022-08-21T19:52:18.417Z,97.53
2022-08-21T19:54:46.407Z,94.57
2022-08-21T19:57:13.387Z,94.29
2022-08-21T19:59:41.337Z,94.64
2022-08-21T20:02:09.770Z,95.87
2022-08-21T20:04:36.912Z,95.05
2022-08-21T20:07:04.532Z,95.98
2022-08-21T20:09:36.825Z,95.45
2022-08-21T20:12:10.042Z,96.97
2022-08-21T20:14:44.323Z,96.97
2022-08-21T20:17:12.627Z,98.51
2022-08-21T20:19:41.951Z,99.81
2022-08-21T20:22:10.331Z,100.00
2022-08-21T20:24:37.104Z,100.00
2022-08-21T20:27:06.311Z,100.00
2022-08-21T20:29:38.968Z,100.00
2022-08-21T20:32:12.212Z,100.00
2022-08-21T20:34:55.520Z,100.00
2022-08-21T20:37:36.565Z,100.00
2022-08-21T20:40:11.153Z,100.00
2022-08-21T20:42:45.412Z,100.00
2022-08-21T20:45:18.663Z,100.00
2022-08-21T20:47:52.745Z,100.00
2022-08-21T20:50:22.525Z,100.00
2022-08-21T20:52:52.255Z,100.00
2022-08-21T20:55:29.401Z,100.00
2022-08-21T20:58:15.423Z,100.00
2022-08-21T21:00:43.309Z,100.00
2022-08-21T21:03:17.191Z,100.00
2022-08-21T21:06:04.582Z,100.00
2022-08-21T21:08:36.878Z,100.00
2022-08-21T21:11:16.981Z,100.00
2022-08-21T21:13:46.855Z,100.00
2022-08-21T21:16:27.318Z,100.00
2022-08-21T21:19:00.627Z,100.00
2022-08-21T21:21:37.809Z,100.00
2022-08-21T21:24:12.584Z,100.00
2022-08-21T21:26:52.152Z,100.00
2022-08-21T21:29:24.955Z,100.00
2022-08-21T21:31:54.202Z,100.00
2022-08-21T21:34:22.358Z,100.00
2022-08-21T21:37:05.120Z,100.00
2022-08-21T21:39:58.754Z,100.00
2022-08-21T21:42:31.466Z,100.00
2022-08-21T21:44:58.242Z,100.00
2022-08-21T21:47:39.878Z,100.00
2022-08-21T21:50:31.336Z,100.00
2022-08-21T21:53:13.496Z,100.00
2022-08-21T21:56:04.701Z,100.00
2022-08-21T21:58:41.399Z,100.00
2022-08-21T22:01:54.805Z,100.00
2022-08-21T22:04:33.127Z,100.00
2022-08-21T22:07:25.186Z,100.00
2022-08-21T22:09:56.546Z,100.00
2022-08-21T22:12:49.818Z,100.00
2022-08-21T22:15:26.354Z,100.00
2022-08-21T22:18:17.108Z,100.00
2022-08-21T22:20:52.804Z,100.00
2022-08-21T22:23:24.391Z,100.00
2022-08-21T22:25:58.558Z,100.00
2022-08-21T22:28:26.931Z,100.00
2022-08-21T22:31:10.892Z,100.00
2022-08-21T22:33:38.029Z,100.00
2022-08-21T22:36:20.758Z,100.00
2022-08-21T22:38:47.945Z,100.00
2022-08-21T22:41:27.966Z,100.00
2022-08-21T22:44:01.821Z,100.00
2022-08-21T22:46:50.014Z,100.00
2022-08-21T22:49:34.101Z,100.00
2022-08-21T22:52:21.126Z,100.00
2022-08-21T22:54:51.519Z,100.00
2022-08-21T22:57:27.316Z,100.00
2022-08-21T23:00:04.606Z,100.00
2022-08-21T23:02:31.349Z,100.00
2022-08-21T23:05:01.446Z,100.00
2022-08-21T23:07:43.714Z,100.00
2022-08-21T23:10:20.004Z,100.00
2022-08-21T23:12:54.214Z,100.00
2022-08-21T23:15:21.465Z,100.00
2022-08-21T23:18:25.586Z,100.00
2022-08-21T23:21:15.522Z,100.00
2022-08-21T23:24:29.088Z,100.00
2022-08-21T23:27:14.138Z,100.00
2022-08-21T23:30:12.322Z,100.00
2022-08-21T23:32:58.513Z,100.00
2022-08-21T23:36:10.391Z,100.00
2022-08-21T23:38:59.455Z,100.00
2022-08-21T23:41:57.907Z,100.00
2022-08-21T23:44:36.535Z,100.00
2022-08-21T23:47:38.453Z,100.00
2022-08-21T23:50:14.685Z,100.00
2022-08-21T23:52:54.242Z,100.00
2022-08-21T23:55:40.524Z,100.00
2022-08-21T23:58:25.217Z,100.00
